createdAt,value
2023-04-27T00:00:23.122Z,7.27
2023-04-27T00:03:26.482Z,7.22
2023-04-27T00:06:29.524Z,7.16
2023-04-27T00:09:33.970Z,7.13
2023-04-27T00:12:36.633Z,7.12
2023-04-27T00:15:39.494Z,7.15
2023-04-27T00:18:42.253Z,7.18
2023-04-27T00:21:44.944Z,7.22
2023-04-27T00:24:48.969Z,7.26
2023-04-27T00:27:51.755Z,7.31
2023-04-27T00:30:55.154Z,7.32
2023-04-27T00:33:57.854Z,7.36
2023-04-27T00:37:00.544Z,7.39
2023-04-27T00:40:07.922Z,7.38
2023-04-27T00:43:10.662Z,7.38
2023-04-27T00:46:14.627Z,7.43
2023-04-27T00:49:17.648Z,7.49
2023-04-27T00:52:20.364Z,7.50
2023-04-27T00:55:24.687Z,7.51
2023-04-27T00:58:27.352Z,7.52
2023-04-27T01:01:31.386Z,7.46
2023-04-27T01:04:34.300Z,7.40
2023-04-27T01:07:38.792Z,7.26
2023-04-27T01:10:42.818Z,7.11
2023-04-27T01:13:46.226Z,6.99
2023-04-27T01:16:49.419Z,6.89
2023-04-27T01:19:55.224Z,6.81
2023-04-27T01:22:58.732Z,6.73
2023-04-27T01:26:02.747Z,6.70
2023-04-27T01:29:05.439Z,6.66
2023-04-27T01:32:14.604Z,6.58
2023-04-27T01:35:17.542Z,6.53
2023-04-27T01:38:20.265Z,6.48
2023-04-27T01:41:24.877Z,6.47
2023-04-27T01:44:27.583Z,6.43
2023-04-27T01:47:30.279Z,6.44
2023-04-27T01:50:33.120Z,6.48
2023-04-27T01:53:36.243Z,6.41
2023-04-27T01:56:40.309Z,6.43
2023-04-27T01:59:43.004Z,6.39
2023-04-27T02:02:46.098Z,6.34
2023-04-27T02:05:48.966Z,6.25
2023-04-27T02:08:51.626Z,6.22
2023-04-27T02:11:55.748Z,6.15
2023-04-27T02:14:58.485Z,6.11
2023-04-27T02:18:01.298Z,6.05
2023-04-27T02:21:09.963Z,6.01
2023-04-27T02:24:12.622Z,5.97
2023-04-27T02:27:16.732Z,5.96
2023-04-27T02:30:20.004Z,5.91
2023-04-27T02:33:23.748Z,5.87
2023-04-27T02:36:27.904Z,5.89
2023-04-27T02:39:30.673Z,5.89
2023-04-27T02:42:34.823Z,5.83
2023-04-27T02:45:39.051Z,5.74
2023-04-27T02:48:41.766Z,5.60
2023-04-27T02:51:44.618Z,5.49
2023-04-27T02:54:47.339Z,5.44
2023-04-27T02:57:52.414Z,5.40
2023-04-27T03:00:55.900Z,5.35
2023-04-27T03:03:59.632Z,5.30
2023-04-27T03:07:02.449Z,5.26
2023-04-27T03:10:06.428Z,5.20
2023-04-27T03:13:10.564Z,5.17
2023-04-27T03:16:13.484Z,5.11
2023-04-27T03:19:16.478Z,5.09
2023-04-27T03:22:19.314Z,5.07
2023-04-27T03:25:22.552Z,5.04
2023-04-27T03:28:26.765Z,5.07
2023-04-27T03:31:29.663Z,5.06
2023-04-27T03:34:32.535Z,5.08
2023-04-27T03:37:36.443Z,5.11
2023-04-27T03:40:39.124Z,5.14
2023-04-27T03:43:43.176Z,5.20
2023-04-27T03:46:45.982Z,5.24
2023-04-27T03:49:48.693Z,5.29
2023-04-27T03:52:51.366Z,5.30
2023-04-27T03:55:54.045Z,5.30
2023-04-27T03:58:58.135Z,5.23
2023-04-27T04:02:01.540Z,5.15
2023-04-27T04:05:04.615Z,4.96
2023-04-27T04:08:07.487Z,4.97
2023-04-27T04:11:12.807Z,4.89
2023-04-27T04:14:16.837Z,4.86
2023-04-27T04:17:19.463Z,4.79
2023-04-27T04:20:22.397Z,4.79
2023-04-27T04:23:25.247Z,4.78
2023-04-27T04:26:27.945Z,4.83
2023-04-27T04:29:32.780Z,4.92
2023-04-27T04:32:37.851Z,5.07
2023-04-27T04:35:41.503Z,5.22
2023-04-27T04:38:44.210Z,5.37
2023-04-27T04:41:47.041Z,5.46
2023-04-27T04:44:51.362Z,5.55
2023-04-27T04:47:55.515Z,5.63
2023-04-27T04:50:58.564Z,5.72
2023-04-27T04:54:02.142Z,5.84
2023-04-27T04:57:07.829Z,6.02
2023-04-27T05:00:13.717Z,6.08
2023-04-27T05:03:16.779Z,6.04
2023-04-27T05:06:20.089Z,6.04
2023-04-27T05:09:23.155Z,5.99
2023-04-27T05:12:25.891Z,5.92
2023-04-27T05:15:29.950Z,6.04
2023-04-27T05:18:32.576Z,5.96
2023-04-27T05:21:35.461Z,5.90
2023-04-27T05:24:38.549Z,6.02
2023-04-27T05:27:41.295Z,6.18
2023-04-27T05:30:45.402Z,6.20
2023-04-27T05:33:48.457Z,6.16
2023-04-27T05:36:51.339Z,6.16
2023-04-27T05:39:54.022Z,6.23
2023-04-27T05:42:56.776Z,6.28
2023-04-27T05:46:00.885Z,6.31
2023-04-27T05:49:03.665Z,6.38
2023-04-27T05:52:06.351Z,6.42
2023-04-27T05:55:09.351Z,6.65
2023-04-27T05:58:12.059Z,6.72
2023-04-27T06:01:16.324Z,6.79
2023-04-27T06:04:19.044Z,6.87
2023-04-27T06:07:22.014Z,6.83
2023-04-27T06:10:24.911Z,6.96
2023-04-27T06:13:27.572Z,7.02
2023-04-27T06:16:31.710Z,7.00
2023-04-27T06:19:34.439Z,7.13
2023-04-27T06:22:38.052Z,7.53
2023-04-27T06:25:41.111Z,7.89
2023-04-27T06:28:46.125Z,8.01
2023-04-27T06:31:50.356Z,8.37
2023-04-27T06:34:53.162Z,8.80
2023-04-27T06:37:58.836Z,9.22
2023-04-27T06:41:05.047Z,9.62
2023-04-27T06:44:07.703Z,10.36
2023-04-27T06:47:11.765Z,10.61
2023-04-27T06:50:17.462Z,10.66
2023-04-27T06:53:20.184Z,10.98
2023-04-27T06:56:22.879Z,11.25
2023-04-27T06:59:25.606Z,11.53
2023-04-27T07:02:29.782Z,11.91
2023-04-27T07:05:34.707Z,12.69
2023-04-27T07:08:37.776Z,12.95
2023-04-27T07:11:40.504Z,12.55
2023-04-27T07:14:43.199Z,11.85
2023-04-27T07:17:47.364Z,11.40
2023-04-27T07:20:50.110Z,11.18
2023-04-27T07:23:54.142Z,10.98
2023-04-27T07:26:59.424Z,10.79
2023-04-27T07:30:02.169Z,10.88
2023-04-27T07:33:07.236Z,11.04
2023-04-27T07:36:10.083Z,11.30
2023-04-27T07:39:13.133Z,11.60
2023-04-27T07:42:16.372Z,11.78
2023-04-27T07:45:19.079Z,11.72
2023-04-27T07:48:24.631Z,11.62
2023-04-27T07:51:28.720Z,11.85
2023-04-27T07:54:31.740Z,11.83
2023-04-27T07:57:34.525Z,12.01
2023-04-27T08:00:37.439Z,12.15
2023-04-27T08:03:43.689Z,12.32
2023-04-27T08:06:47.135Z,12.67
2023-04-27T08:09:52.378Z,12.81
2023-04-27T08:12:55.406Z,12.97
2023-04-27T08:15:59.382Z,12.67
2023-04-27T08:19:03.504Z,12.52
2023-04-27T08:22:06.200Z,12.29
2023-04-27T08:25:09.939Z,12.10
2023-04-27T08:28:12.688Z,12.01
2023-04-27T08:31:18.443Z,12.17
2023-04-27T08:34:22.454Z,12.28
2023-04-27T08:37:25.276Z,12.14
2023-04-27T08:40:28.198Z,12.18
2023-04-27T08:43:35.390Z,12.18
2023-04-27T08:46:38.744Z,12.18
2023-04-27T08:49:42.933Z,12.32
2023-04-27T08:52:45.799Z,12.28
2023-04-27T08:55:48.565Z,12.24
2023-04-27T08:58:53.489Z,12.32
2023-04-27T09:01:56.438Z,12.35
2023-04-27T09:05:04.066Z,12.51
2023-04-27T09:08:10.878Z,12.56
2023-04-27T09:11:14.151Z,12.77
2023-04-27T09:14:19.658Z,12.85
2023-04-27T09:17:25.965Z,12.81
2023-04-27T09:20:30.197Z,13.06
2023-04-27T09:23:34.309Z,13.14
2023-04-27T09:26:38.635Z,13.41
2023-04-27T09:29:41.457Z,13.42
2023-04-27T09:32:54.321Z,13.64
2023-04-27T09:36:01.057Z,13.87
2023-04-27T09:39:05.367Z,14.10
2023-04-27T09:42:08.496Z,14.49
2023-04-27T09:45:12.887Z,14.60
2023-04-27T09:48:15.578Z,14.60
2023-04-27T09:51:19.600Z,14.83
2023-04-27T09:54:25.199Z,14.97
2023-04-27T09:57:37.615Z,15.00
2023-04-27T10:00:56.520Z,15.04
2023-04-27T10:04:14.431Z,15.16
2023-04-27T10:07:19.064Z,15.05
2023-04-27T10:10:21.831Z,15.00
2023-04-27T10:13:26.219Z,14.89
2023-04-27T10:16:29.031Z,14.79
2023-04-27T10:19:31.863Z,14.96
2023-04-27T10:22:44.271Z,15.07
2023-04-27T10:25:47.794Z,15.25
2023-04-27T10:28:58.554Z,14.96
2023-04-27T10:32:07.749Z,15.02
2023-04-27T10:35:10.736Z,15.29
2023-04-27T10:38:18.999Z,15.38
2023-04-27T10:41:23.520Z,15.59
2023-04-27T10:44:28.704Z,15.88
2023-04-27T10:47:39.263Z,15.84
2023-04-27T10:50:42.592Z,16.12
2023-04-27T10:53:47.951Z,16.26
2023-04-27T10:56:50.774Z,16.27
2023-04-27T10:59:55.630Z,16.39
2023-04-27T11:03:11.376Z,16.44
2023-04-27T11:06:14.435Z,16.61
2023-04-27T11:09:28.195Z,16.88
2023-04-27T11:12:33.333Z,17.10
2023-04-27T11:15:44.524Z,17.16
2023-04-27T11:18:47.296Z,17.36
2023-04-27T11:21:50.872Z,17.65
2023-04-27T11:24:55.070Z,17.77
2023-04-27T11:27:57.771Z,17.91
2023-04-27T11:31:01.058Z,18.02
2023-04-27T11:34:04.190Z,18.16
2023-04-27T11:40:16.015Z,18.13
2023-04-27T11:43:19.043Z,18.11
2023-04-27T11:46:22.350Z,18.27
2023-04-27T11:49:26.913Z,18.39
2023-04-27T11:52:30.443Z,18.53
2023-04-27T11:55:41.812Z,18.87
2023-04-27T11:58:46.431Z,18.82
2023-04-27T12:01:49.543Z,18.81
2023-04-27T12:04:52.822Z,18.80
2023-04-27T12:07:55.871Z,19.06
2023-04-27T12:11:00.344Z,19.08
2023-04-27T12:14:04.029Z,19.01
2023-04-27T12:17:07.613Z,18.93
2023-04-27T12:20:11.665Z,19.12
2023-04-27T12:23:14.448Z,19.30
2023-04-27T12:26:18.620Z,19.26
2023-04-27T12:29:22.243Z,19.27
2023-04-27T12:32:24.923Z,19.29
2023-04-27T12:35:31.709Z,19.31
2023-04-27T12:38:34.496Z,19.12
2023-04-27T12:41:38.716Z,19.08
2023-04-27T12:44:42.373Z,19.25
2023-04-27T12:48:00.931Z,19.06
2023-04-27T12:51:04.439Z,19.17
2023-04-27T12:54:07.871Z,19.22
2023-04-27T12:57:12.211Z,19.48
2023-04-27T13:00:15.876Z,19.65
2023-04-27T13:03:18.885Z,19.83
2023-04-27T13:06:22.914Z,19.88
2023-04-27T13:09:28.989Z,19.89
2023-04-27T13:12:33.513Z,19.80
2023-04-27T13:15:36.572Z,19.88
2023-04-27T13:18:40.168Z,19.82
2023-04-27T13:21:42.942Z,19.78
2023-04-27T13:24:45.612Z,19.88
2023-04-27T13:27:50.292Z,20.00
2023-04-27T13:30:55.547Z,20.08
2023-04-27T13:33:58.651Z,20.27
2023-04-27T13:37:01.382Z,20.49
2023-04-27T13:40:05.309Z,20.55
2023-04-27T13:43:09.328Z,20.50
2023-04-27T13:46:13.693Z,20.44
2023-04-27T13:49:16.495Z,20.35
2023-04-27T13:52:19.310Z,20.20
2023-04-27T13:55:22.364Z,20.32
2023-04-27T13:58:28.057Z,20.52
2023-04-27T14:01:30.809Z,20.68
2023-04-27T14:04:33.837Z,20.82
2023-04-27T14:07:36.879Z,20.95
2023-04-27T14:10:39.976Z,20.86
2023-04-27T14:13:43.993Z,20.57
2023-04-27T14:16:46.938Z,20.36
2023-04-27T14:19:49.947Z,20.28
2023-04-27T14:22:52.906Z,20.22
2023-04-27T14:25:55.799Z,20.27
2023-04-27T14:29:00.057Z,20.29
2023-04-27T14:32:02.772Z,20.19
2023-04-27T14:35:07.060Z,19.96
2023-04-27T14:38:09.881Z,20.07
2023-04-27T14:41:12.573Z,20.25
2023-04-27T14:44:16.634Z,20.41
2023-04-27T14:47:19.802Z,20.54
2023-04-27T14:50:22.571Z,20.60
2023-04-27T14:53:25.481Z,20.55
2023-04-27T14:56:28.218Z,20.61
2023-04-27T14:59:34.118Z,20.64
2023-04-27T15:02:37.311Z,20.60
2023-04-27T15:05:40.294Z,20.60
2023-04-27T15:08:42.992Z,20.58
2023-04-27T15:11:45.803Z,20.61
2023-04-27T15:14:51.674Z,20.55
2023-04-27T15:17:54.431Z,20.48
2023-04-27T15:20:58.077Z,20.45
2023-04-27T15:24:00.796Z,20.44
2023-04-27T15:27:03.933Z,20.39
2023-04-27T15:30:09.392Z,20.24
2023-04-27T15:33:12.338Z,20.02
2023-04-27T15:36:15.977Z,19.98
2023-04-27T15:39:18.805Z,19.91
2023-04-27T15:42:21.743Z,19.77
2023-04-27T15:45:25.910Z,19.78
2023-04-27T15:48:28.748Z,19.74
2023-04-27T15:51:32.563Z,19.60
2023-04-27T15:54:36.009Z,19.49
2023-04-27T15:57:39.301Z,19.52
2023-04-27T16:00:44.796Z,19.58
2023-04-27T16:03:52.203Z,19.60
2023-04-27T16:06:55.708Z,19.60
2023-04-27T16:09:58.584Z,19.64
2023-04-27T16:13:01.320Z,19.67
2023-04-27T16:16:07.336Z,19.73
2023-04-27T16:19:10.673Z,19.78
2023-04-27T16:22:13.440Z,19.82
2023-04-27T16:25:16.816Z,19.68
2023-04-27T16:28:19.938Z,19.54
2023-04-27T16:31:24.509Z,19.45
2023-04-27T16:34:27.782Z,19.38
2023-04-27T16:37:30.620Z,19.31
2023-04-27T16:40:33.438Z,19.22
2023-04-27T16:43:36.350Z,19.19
2023-04-27T16:46:40.715Z,19.20
2023-04-27T16:49:44.310Z,19.22
2023-04-27T16:52:47.085Z,19.18
2023-04-27T16:55:49.816Z,19.19
2023-04-27T16:58:52.452Z,19.13
2023-04-27T17:01:56.563Z,19.02
2023-04-27T17:04:59.689Z,18.91
2023-04-27T17:08:05.076Z,18.82
2023-04-27T17:11:09.099Z,18.70
2023-04-27T17:14:11.869Z,18.61
2023-04-27T17:17:17.054Z,18.50
2023-04-27T17:20:19.958Z,18.32
2023-04-27T17:23:22.635Z,18.15
2023-04-27T17:26:25.330Z,17.96
2023-04-27T17:29:28.042Z,17.79
2023-04-27T17:32:32.487Z,17.63
2023-04-27T17:35:35.279Z,17.37
2023-04-27T17:38:38.300Z,17.13
2023-04-27T17:41:41.178Z,16.96
2023-04-27T17:44:43.942Z,16.81
2023-04-27T17:47:48.082Z,16.63
2023-04-27T17:50:50.952Z,16.51
2023-04-27T17:53:54.145Z,16.43
2023-04-27T17:56:56.934Z,16.25
2023-04-27T17:59:59.707Z,16.13
2023-04-27T18:03:04.077Z,15.96
2023-04-27T18:06:08.064Z,15.79
2023-04-27T18:09:11.219Z,15.68
2023-04-27T18:12:13.922Z,15.50
2023-04-27T18:15:16.605Z,15.36
2023-04-27T18:18:23.266Z,15.30
2023-04-27T18:21:28.374Z,15.27
2023-04-27T18:24:31.223Z,15.11
2023-04-27T18:27:33.924Z,15.02
2023-04-27T18:30:36.721Z,14.88
2023-04-27T18:33:40.750Z,14.68
2023-04-27T18:36:43.538Z,14.42
2023-04-27T18:39:46.192Z,14.52
2023-04-27T18:42:49.098Z,14.47
2023-04-27T18:45:52.098Z,14.46
2023-04-27T18:48:56.290Z,14.37
2023-04-27T18:51:59.066Z,14.30
2023-04-27T18:55:02.691Z,14.21
2023-04-27T18:58:05.433Z,14.17
2023-04-27T19:01:08.328Z,14.17
2023-04-27T19:04:13.037Z,14.08
2023-04-27T19:07:16.324Z,14.06
2023-04-27T19:10:19.062Z,13.94
2023-04-27T19:13:21.826Z,13.91
2023-04-27T19:16:24.637Z,13.84
2023-04-27T19:19:28.712Z,13.75
2023-04-27T19:22:34.296Z,13.67
2023-04-27T19:25:37.281Z,13.61
2023-04-27T19:28:40.176Z,13.57
2023-04-27T19:31:42.943Z,13.57
2023-04-27T19:34:47.354Z,13.57
2023-04-27T19:37:50.823Z,13.62
2023-04-27T19:40:53.706Z,13.52
2023-04-27T19:43:56.577Z,13.53
2023-04-27T19:46:59.406Z,13.51
2023-04-27T19:50:04.931Z,13.51
2023-04-27T19:53:07.622Z,13.47
2023-04-27T19:56:10.359Z,13.41
2023-04-27T19:59:13.053Z,13.40
2023-04-27T20:02:16.332Z,13.33
2023-04-27T20:05:20.778Z,13.24
2023-04-27T20:08:24.763Z,13.21
2023-04-27T20:11:27.633Z,13.20
2023-04-27T20:14:33.670Z,13.21
2023-04-27T20:17:36.446Z,13.22
2023-04-27T20:20:42.026Z,13.19
2023-04-27T20:23:44.884Z,13.16
2023-04-27T20:26:47.601Z,13.05
2023-04-27T20:29:50.272Z,13.02
2023-04-27T20:32:53.495Z,12.90
2023-04-27T20:36:03.521Z,12.90
2023-04-27T20:39:10.390Z,12.78
2023-04-27T20:42:13.541Z,12.58
2023-04-27T20:45:16.354Z,12.74
2023-04-27T20:48:19.336Z,12.73
2023-04-27T20:51:23.715Z,12.69
2023-04-27T20:54:26.450Z,12.69
2023-04-27T20:57:29.128Z,12.70
2023-04-27T21:00:32.001Z,12.72
2023-04-27T21:03:35.589Z,12.71
2023-04-27T21:06:41.190Z,12.72
2023-04-27T21:09:43.893Z,12.68
2023-04-27T21:12:46.625Z,12.72
2023-04-27T21:15:49.268Z,12.67
2023-04-27T21:18:51.903Z,12.62
2023-04-27T21:21:56.179Z,12.62
2023-04-27T21:24:58.876Z,12.60
2023-04-27T21:28:02.248Z,12.53
2023-04-27T21:31:05.038Z,12.50
2023-04-27T21:34:08.113Z,12.44
2023-04-27T21:37:12.205Z,12.42
2023-04-27T21:40:14.954Z,12.36
2023-04-27T21:43:17.723Z,12.26
2023-04-27T21:46:20.880Z,12.17
2023-04-27T21:49:23.630Z,12.09
2023-04-27T21:52:27.719Z,12.08
2023-04-27T21:55:30.426Z,12.11
2023-04-27T21:58:33.157Z,12.12
2023-04-27T22:01:35.942Z,12.12
2023-04-27T22:04:39.630Z,12.16
2023-04-27T22:07:47.657Z,12.19
2023-04-27T22:10:50.320Z,12.19
2023-04-27T22:13:53.207Z,12.19
2023-04-27T22:16:58.111Z,12.19
2023-04-27T22:20:01.229Z,12.21
2023-04-27T22:23:05.322Z,12.26
2023-04-27T22:26:08.979Z,12.15
2023-04-27T22:29:11.942Z,12.13
2023-04-27T22:32:15.390Z,12.14
2023-04-27T22:35:26.224Z,12.11
2023-04-27T22:38:31.102Z,12.12
2023-04-27T22:41:33.895Z,12.15
2023-04-27T22:44:36.616Z,12.18
2023-04-27T22:47:41.203Z,12.22
2023-04-27T22:50:44.022Z,12.14
2023-04-27T22:53:48.077Z,12.13
2023-04-27T22:56:50.913Z,12.13
2023-04-27T22:59:54.690Z,12.17
2023-04-27T23:02:57.744Z,12.15
2023-04-27T23:06:01.350Z,12.11
2023-04-27T23:09:05.549Z,12.08
2023-04-27T23:12:08.978Z,12.00
2023-04-27T23:15:12.562Z,12.01
2023-04-27T23:18:15.499Z,12.02
2023-04-27T23:21:18.320Z,11.88
2023-04-27T23:24:22.310Z,12.05
2023-04-27T23:27:25.183Z,12.09
2023-04-27T23:30:27.898Z,12.06
2023-04-27T23:33:30.594Z,12.00
2023-04-27T23:36:33.297Z,11.92
2023-04-27T23:39:37.333Z,11.91
2023-04-27T23:42:40.078Z,11.88
2023-04-27T23:45:42.743Z,11.87
2023-04-27T23:48:46.094Z,12.02
2023-04-27T23:51:50.022Z,12.00
2023-04-27T23:54:54.018Z,11.92
2023-04-27T23:57:56.814Z,11.88
